WetterOnline ( https://www.wetteronline.at )

Wetter aktuell Molfsee

Aktuelles Wetter: Dörnick (28m)

6-stündlich | Neueste Meldungen
Ortszeit Temperatur Wetter
Mi, 24.07. 2:00 15.8° C leicht bewölkt
Di, 23.07. 20:00 18.8° C wolkig
Di, 23.07. 14:00 22.0° C wolkig
Di, 23.07. 8:00 18.3° C bewölkt
Di, 23.07. 2:00 12.7° C bewölkt
Mo, 22.07. 20:00 18.2° C wolkenlos
Mo, 22.07. 14:00 18.7° C bedeckt
Mo, 22.07. 8:00 18.3° C leichter Regen
Ortszeit Temperatur Wetter
Mi, 24.07. 4:00 15.5° C wolkig
Mi, 24.07. 3:50 15.5° C wolkig
Mi, 24.07. 3:40 15.3° C leicht bewölkt
Mi, 24.07. 3:30 15.6° C leicht bewölkt
Mi, 24.07. 3:20 15.6° C leicht bewölkt
Mi, 24.07. 3:10 15.6° C leicht bewölkt
Mi, 24.07. 3:00 15.8° C wolkig
Mi, 24.07. 2:30 15.9° C wolkig
Mi, 24.07. 2:00 15.8° C leicht bewölkt
Mi, 24.07. 1:30 16.3° C wolkig
Mi, 24.07. 1:00 15.6° C fast wolkenlos
Ortszeit Relative Feuchte Sichtweite
Mi, 24.07. 2:00 96% 11 km
Di, 23.07. 20:00 89% 23 km
Di, 23.07. 14:00 68% 45 km
Di, 23.07. 8:00 75% 60 km
Di, 23.07. 2:00 95% 50 km
Mo, 22.07. 20:00 60% >70 km
Mo, 22.07. 14:00 72% 40 km
Mo, 22.07. 8:00 96% 18 km
Ortszeit Relative Feuchte Sichtweite
Mi, 24.07. 4:00 96% 11 km
Mi, 24.07. 3:50 96% -
Mi, 24.07. 3:40 96% -
Mi, 24.07. 3:30 96% 9 km
Mi, 24.07. 3:20 96% -
Mi, 24.07. 3:10 97% -
Mi, 24.07. 3:00 96% 10 km
Mi, 24.07. 2:30 96% 9 km
Mi, 24.07. 2:00 96% 11 km
Mi, 24.07. 1:30 94% 16 km
Mi, 24.07. 1:00 96% 14 km
Ortszeit Niederschlagsmenge Niederschlagsart
Mi, 24.07. 2:00 0.0 l/m2 in 6 Std. -
Di, 23.07. 20:00 2 l/m2 in 12 Std. Regen
Di, 23.07. 14:00 1 l/m2 in 6 Std. Regen, Niederschlag
Di, 23.07. 8:00 0.0 l/m2 in 12 Std. -
Di, 23.07. 2:00 0.0 l/m2 in 6 Std. -
Mo, 22.07. 20:00 1 l/m2 in 12 Std. -
Mo, 22.07. 14:00 1 l/m2 in 6 Std. Regen
Mo, 22.07. 8:00 3 l/m2 in 12 Std. Regen
Ortszeit Niederschlagsmenge Niederschlagsart
Mi, 24.07. 4:00 0.0 l/m2 in 1 Std. -
Mi, 24.07. 3:50 keine Meldung -
Mi, 24.07. 3:40 keine Meldung -
Mi, 24.07. 3:30 0.0 l/m2 in 30 Min -
Mi, 24.07. 3:20 keine Meldung -
Mi, 24.07. 3:10 keine Meldung -
Mi, 24.07. 3:00 0.0 l/m2 in 1 Std. -
Mi, 24.07. 2:30 0.0 l/m2 in 30 Min -
Mi, 24.07. 2:00 0.0 l/m2 in 1 Std. -
Mi, 24.07. 1:30 0.0 l/m2 in 30 Min -
Mi, 24.07. 1:00 0.0 l/m2 in 1 Std. -
Ortszeit Stärke Spitze Richtung
km/h Bft. km/h Grad Sektor
Mi, 24.07. 2:00 7 2 18 270° W
Di, 23.07. 20:00 6 1 31 190° S
Di, 23.07. 14:00 19 3 35 220° SW
Di, 23.07. 8:00 11 2 22 180° S
Di, 23.07. 2:00 4 1 25 160° S
Mo, 22.07. 20:00 17 3 39 270° W
Mo, 22.07. 14:00 18 3 40 290° W
Mo, 22.07. 8:00 11 2 29 270° W
Ortszeit Stärke Spitze Richtung
km/h Bft. km/h Grad Sektor
Mi, 24.07. 4:00 7 2 11 280° W
Mi, 24.07. 3:50 7 2 - 280° W
Mi, 24.07. 3:40 7 2 - 270° W
Mi, 24.07. 3:30 7 2 11 280° W
Mi, 24.07. 3:20 7 2 - 280° W
Mi, 24.07. 3:10 7 2 - 270° W
Mi, 24.07. 3:00 6 1 13 280° W
Mi, 24.07. 2:30 7 2 11 290° W
Mi, 24.07. 2:00 7 2 18 270° W
Mi, 24.07. 1:30 11 2 14 270° W
Mi, 24.07. 1:00 6 1 15 280° W
Ortszeit Untergrenze Bedeckung Gattung
total tief tief mittel hoch
Mi, 24.07. 2:00 510 m 2/8 1/8 - - -
Di, 23.07. 20:00 7800 m 8/8 0/8 - - -
Di, 23.07. 14:00 960 m 7/8 5/8 - - -
Di, 23.07. 8:00 3000 m 7/8 7/8 - - -
Di, 23.07. 2:00 2100 m 7/8 7/8 - - -
Mo, 22.07. 20:00 - 0/8 0/8 - - -
Mo, 22.07. 14:00 660 m 8/8 8/8 - - -
Mo, 22.07. 8:00 150 m 7/8 7/8 - - -
Ortszeit Bedeckungsgrad in Achtel und Wolkenuntergrenze
Mi, 24.07. 4:00 1(270m) 5(570m)
Mi, 24.07. 3:50 1(270m) 1(390m) 5(570m)
Mi, 24.07. 3:40 3
Mi, 24.07. 3:30 4(330m) 4(600m)
Mi, 24.07. 3:20 4(330m) 4(600m)
Mi, 24.07. 3:10 4
Mi, 24.07. 3:00 1(360m) 5(990m)
Mi, 24.07. 2:30 5(960m)
Mi, 24.07. 2:00 1(510m)
Mi, 24.07. 1:30 5(420m)
Mi, 24.07. 1:00 1(420m)
Ortszeit Luftdruck NN (hPa) Tendenz (hPa in 3 Std.)
Mi, 24.07. 2:00 1015 + 0,7
Di, 23.07. 20:00 1014 - 0,2
Di, 23.07. 14:00 1013 - 0,6
Di, 23.07. 8:00 1015 - 0,8
Di, 23.07. 2:00 1017 - 0,5
Mo, 22.07. 20:00 1017 + 0,9
Mo, 22.07. 14:00 1014 + 2,4
Mo, 22.07. 8:00 1010 + 1,1
Ortszeit Luftdruck NN (hPa) Tendenz (hPa in 3 Std.)
Mi, 24.07. 4:00 1015 + 0,5
Mi, 24.07. 3:50 1015 keine Meldung
Mi, 24.07. 3:40 1015 keine Meldung
Mi, 24.07. 3:30 1015 + 0,7
Mi, 24.07. 3:20 1015 keine Meldung
Mi, 24.07. 3:10 1015 keine Meldung
Mi, 24.07. 3:00 1015 + 0,8
Mi, 24.07. 2:30 1015 + 0,8
Mi, 24.07. 2:00 1015 + 0,7
Mi, 24.07. 1:30 1015 + 1,0
Mi, 24.07. 1:00 1015 + 0,7
Ortszeit Schneehöhe (cm)
Mi, 24.07. 2:00 0
Di, 23.07. 20:00 0
Di, 23.07. 14:00 0
Di, 23.07. 8:00 0
Di, 23.07. 2:00 0
Mo, 22.07. 20:00 0
Mo, 22.07. 14:00 0
Mo, 22.07. 8:00 0
Ortszeit Schneehöhe (cm)
Mi, 24.07. 4:00 0
Mi, 24.07. 3:50 0
Mi, 24.07. 3:40 -
Mi, 24.07. 3:30 0
Mi, 24.07. 3:20 0
Mi, 24.07. 3:10 -
Mi, 24.07. 3:00 0
Mi, 24.07. 2:30 0
Mi, 24.07. 2:00 0
Mi, 24.07. 1:30 0
Mi, 24.07. 1:00 0
Link zu dieser Seite / Seite empfehlen

Das Wetter in ...